Argentia, Canada
Current Conditions -  °F | °C
As of 8:00 PM on Saturday 20 Dec 2014 (Local Time) from CYYT Reporting Station
Broken Clouds Broken Clouds  
Wind Chill: 19°   Ceiling: 3800
Heat Index: 32°   Visibility: 15mi
Dew Point: 23°   Wind: 22mph
Humidity: 69%   Direction: 50°NE
Pressure: 30.17"   Gusts: 31mph
Location:  47.32°N, 53.95°W
Report Text: CYYT 202300Z 05019G27KT 15SM BKN038 BKN220 M00/M05 A3017 RMK SC5CI2 SLP223
Loading
Personal Weather Stations






























Interactive Weather Map New forecast layout! Learn more

10-Day Weather Forecast

Advertisements
Track Severe Weather on mobile